KHEY/HEY METAR and TAF weather

Enter ICAO airport designator
Station Type Date Time Source
KHEY METAR 2019/02/16 03:58 UTC NOAA

KHEY 160358Z AUTO 21003KT 10SM BKN018 OVC023 17/15 A2984 RMK AO2 SLP106 T01670154


Station Type Date Time Source
KHEY Decoded METAR 2019/02/16 03:58 UTC NOAA

Hanchey AHP / Ozark, AL, United States (KHEY) 31-21N 085-40W
Feb 15, 2019 - 10:58 PM EST / 2019.02.16 0358 UTC
Wind: from the SSW (210 degrees) at 3 MPH (3 KT):0
Visibility: 10 mile(s):0
Sky conditions: overcast
Temperature: 62.1 F (16.7 C)
Dew Point: 59.7 F (15.4 C)
Relative Humidity: 92%
Pressure (altimeter): 29.84 in. Hg (1010 hPa)
ob: KHEY 160358Z AUTO 21003KT 10SM BKN018 OVC023 17/15 A2984 RMK AO2 SLP106 T01670154
cycle: 4

Station Type Date Time Source
KHEY TAF UTC NOAA

Error!


Example: see airport list